Takuyo Maru — JD3661 — position and weather

sailwx.info

Track history (hours):
 
Tides and Currents Weather Stations Pressure Air Temp Water Temp Dewpoint Dewpoint Depression Visibility Wind Speed Wind Dir Waves Ship Positions

Takuyo Maru

Last reported at 2017-Oct-15 02:24 UTC. Time now 2017-Oct-19 02:13 UTC.
Position N 34°36' E 135°04'.

Length 61 m.

Type: Cargo ship. MMSI: 431005239.

Date/timePositionNaut miles runAvg speedWind from/ knotsBaromVisibWave heightAir tempDewpointWater temp
2017-Oct-15 02:24N 34°36' E 135°04'410.9
2017-Oct-15 02:00N 34°36' E 135°10'811.9
2017-Oct-15 01:21N 34°36' E 135°19'6 0.2
2017-Oct-13 10:57N 34°35' E 135°26'510.4
2017-Oct-13 10:28N 34°36' E 135°20'511.0
2017-Oct-13 10:00N 34°35' E 135°14'611.4
2017-Oct-13 09:29N 34°35' E 135°07'4 0.2
2017-Oct-12 10:11N 34°36' E 135°03'2 9.3
2017-Oct-12 09:58N 34°36' E 135°05'510.3
2017-Oct-12 09:30N 34°36' E 135°11'611.4
2017-Oct-12 08:57N 34°36' E 135°18'7 0.8
2017-Oct-12 00:26N 34°38' E 135°27'410.0
2017-Oct-12 00:00N 34°39' E 135°21'5 9.8
2017-Oct-11 23:30N 34°43' E 135°18'0 0.6
2017-Oct-11 22:52N 34°43' E 135°18'0 0.0
2017-Oct-11 22:22N 34°43' E 135°18'0 0.0
2017-Oct-11 21:52N 34°43' E 135°18'0 0.0
2017-Oct-11 20:40N 34°43' E 135°18'0 0.0
2017-Oct-11 20:10N 34°43' E 135°18'0 0.0
2017-Oct-11 19:52N 34°43' E 135°18'0 0.0
2017-Oct-11 19:28N 34°43' E 135°18'0 0.0
2017-Oct-11 18:58N 34°43' E 135°18'0 0.0
2017-Oct-11 18:10N 34°43' E 135°18'0 0.0
2017-Oct-11 17:58N 34°43' E 135°18'0 0.0
2017-Oct-11 17:16N 34°43' E 135°18'0 0.0
2017-Oct-11 16:52N 34°43' E 135°18'2 0.1
2017-Oct-10 23:13N 34°42' E 135°16'0 0.0
2017-Oct-10 22:55N 34°42' E 135°16'2 3.6
2017-Oct-10 22:26N 34°41' E 135°18'0 0.6
2017-Oct-10 22:00N 34°41' E 135°19'0 0.0
2017-Oct-10 21:30N 34°41' E 135°19'0 0.0
2017-Oct-10 21:00N 34°41' E 135°19'0 0.0
2017-Oct-10 20:24N 34°41' E 135°19'0 0.0
2017-Oct-10 20:00N 34°41' E 135°19'0 0.0
2017-Oct-10 19:12N 34°41' E 135°19'0 0.2
2017-Oct-10 18:54N 34°41' E 135°19'0 0.0
2017-Oct-10 18:30N 34°41' E 135°19'0 0.0
2017-Oct-10 17:48N 34°41' E 135°19'0 0.0
2017-Oct-10 17:30N 34°41' E 135°19'0 0.0
2017-Oct-10 17:00N 34°41' E 135°19'0 0.0
2017-Oct-10 16:30N 34°41' E 135°19'0 0.0
2017-Oct-10 16:00N 34°41' E 135°19'0 0.0
2017-Oct-10 15:30N 34°41' E 135°19'0 0.0
2017-Oct-10 14:54N 34°41' E 135°19'0 0.0
2017-Oct-10 13:54N 34°41' E 135°19'0 0.0
2017-Oct-10 13:24N 34°41' E 135°19'0 0.1
2017-Oct-10 13:00N 34°41' E 135°19'0 0.0
2017-Oct-10 12:30N 34°41' E 135°19'0 0.0
2017-Oct-10 11:54N 34°41' E 135°19'0 0.0
2017-Oct-10 11:24N 34°41' E 135°19'0 0.0
2017-Oct-10 11:00N 34°41' E 135°19'0 0.0
2017-Oct-10 10:30N 34°41' E 135°19'0 0.0
2017-Oct-10 10:00N 34°41' E 135°19'4 7.9
2017-Oct-10 09:27N 34°37' E 135°17'511.5
2017-Oct-10 09:00N 34°35' E 135°12'  
Track history (hours):
 
Tides and Currents Weather Stations Pressure Air Temp Water Temp Dewpoint Dewpoint Depression Visibility Wind Speed Wind Dir Waves Ship Positions

Takuyo Maru

Last reported at 2017-Oct-15 02:24 UTC. Time now 2017-Oct-19 02:13 UTC.
Position N 34°36' E 135°04'.

Length 61 m.

Type: Cargo ship. MMSI: 431005239.

Date/timePositionNaut miles runAvg speedWind from/ knotsBaromVisibWave heightAir tempDewpointWater temp
2017-Oct-15 02:24N 34°36' E 135°04'410.9
2017-Oct-15 02:00N 34°36' E 135°10'811.9
2017-Oct-15 01:21N 34°36' E 135°19'6 0.2
2017-Oct-13 10:57N 34°35' E 135°26'510.4
2017-Oct-13 10:28N 34°36' E 135°20'511.0
2017-Oct-13 10:00N 34°35' E 135°14'611.4
2017-Oct-13 09:29N 34°35' E 135°07'4 0.2
2017-Oct-12 10:11N 34°36' E 135°03'2 9.3
2017-Oct-12 09:58N 34°36' E 135°05'510.3
2017-Oct-12 09:30N 34°36' E 135°11'611.4
2017-Oct-12 08:57N 34°36' E 135°18'7 0.8
2017-Oct-12 00:26N 34°38' E 135°27'410.0
2017-Oct-12 00:00N 34°39' E 135°21'5 9.8
2017-Oct-11 23:30N 34°43' E 135°18'0 0.6
2017-Oct-11 22:52N 34°43' E 135°18'0 0.0
2017-Oct-11 22:22N 34°43' E 135°18'0 0.0
2017-Oct-11 21:52N 34°43' E 135°18'0 0.0
2017-Oct-11 20:40N 34°43' E 135°18'0 0.0
2017-Oct-11 20:10N 34°43' E 135°18'0 0.0
2017-Oct-11 19:52N 34°43' E 135°18'0 0.0
2017-Oct-11 19:28N 34°43' E 135°18'0 0.0
2017-Oct-11 18:58N 34°43' E 135°18'0 0.0
2017-Oct-11 18:10N 34°43' E 135°18'0 0.0
2017-Oct-11 17:58N 34°43' E 135°18'0 0.0
2017-Oct-11 17:16N 34°43' E 135°18'0 0.0
2017-Oct-11 16:52N 34°43' E 135°18'2 0.1
2017-Oct-10 23:13N 34°42' E 135°16'0 0.0
2017-Oct-10 22:55N 34°42' E 135°16'2 3.6
2017-Oct-10 22:26N 34°41' E 135°18'0 0.6
2017-Oct-10 22:00N 34°41' E 135°19'0 0.0
2017-Oct-10 21:30N 34°41' E 135°19'0 0.0
2017-Oct-10 21:00N 34°41' E 135°19'0 0.0
2017-Oct-10 20:24N 34°41' E 135°19'0 0.0
2017-Oct-10 20:00N 34°41' E 135°19'0 0.0
2017-Oct-10 19:12N 34°41' E 135°19'0 0.2
2017-Oct-10 18:54N 34°41' E 135°19'0 0.0
2017-Oct-10 18:30N 34°41' E 135°19'0 0.0
2017-Oct-10 17:48N 34°41' E 135°19'0 0.0
2017-Oct-10 17:30N 34°41' E 135°19'0 0.0
2017-Oct-10 17:00N 34°41' E 135°19'0 0.0
2017-Oct-10 16:30N 34°41' E 135°19'0 0.0
2017-Oct-10 16:00N 34°41' E 135°19'0 0.0
2017-Oct-10 15:30N 34°41' E 135°19'0 0.0
2017-Oct-10 14:54N 34°41' E 135°19'0 0.0
2017-Oct-10 13:54N 34°41' E 135°19'0 0.0
2017-Oct-10 13:24N 34°41' E 135°19'0 0.1
2017-Oct-10 13:00N 34°41' E 135°19'0 0.0
2017-Oct-10 12:30N 34°41' E 135°19'0 0.0
2017-Oct-10 11:54N 34°41' E 135°19'0 0.0
2017-Oct-10 11:24N 34°41' E 135°19'0 0.0
2017-Oct-10 11:00N 34°41' E 135°19'0 0.0
2017-Oct-10 10:30N 34°41' E 135°19'0 0.0
2017-Oct-10 10:00N 34°41' E 135°19'4 7.9
2017-Oct-10 09:27N 34°37' E 135°17'511.5
2017-Oct-10 09:00N 34°35' E 135°12'  

Dump ship's entire track history